createdAt,value
2023-04-20T00:02:05.439Z,84.70
2023-04-20T00:04:36.672Z,84.50
2023-04-20T00:07:09.440Z,84.90
2023-04-20T00:09:46.248Z,85.30
2023-04-20T00:12:17.347Z,84.80
2023-04-20T00:14:48.208Z,85.00
2023-04-20T00:17:19.145Z,84.20
2023-04-20T00:19:51.188Z,84.30
2023-04-20T00:22:22.713Z,84.20
2023-04-20T00:24:53.645Z,83.80
2023-04-20T00:27:24.752Z,84.50
2023-04-20T00:29:56.628Z,84.70
2023-04-20T00:32:27.907Z,84.10
2023-04-20T00:35:04.420Z,83.50
2023-04-20T00:37:36.021Z,84.70
2023-04-20T00:40:09.115Z,83.90
2023-04-20T00:42:42.730Z,84.00
2023-04-20T00:45:13.778Z,83.50
2023-04-20T00:47:44.154Z,83.50
2023-04-20T00:50:15.382Z,83.30
2023-04-20T00:52:46.297Z,83.70
2023-04-20T00:55:18.175Z,84.00
2023-04-20T00:57:48.930Z,84.10
2023-04-20T01:00:20.921Z,82.60
2023-04-20T01:02:51.421Z,83.00
2023-04-20T01:05:22.879Z,82.20
2023-04-20T01:07:54.279Z,82.40
2023-04-20T01:10:25.789Z,83.00
2023-04-20T01:12:57.849Z,83.10
2023-04-20T01:15:29.491Z,82.90
2023-04-20T01:18:00.359Z,84.00
2023-04-20T01:20:31.668Z,83.00
2023-04-20T01:23:02.684Z,83.30
2023-04-20T01:25:34.052Z,82.90
2023-04-20T01:28:04.779Z,82.40
2023-04-20T01:30:36.841Z,81.00
2023-04-20T01:33:07.752Z,81.60
2023-04-20T01:35:38.608Z,81.40
2023-04-20T01:38:09.385Z,81.90
2023-04-20T01:40:41.840Z,81.60
2023-04-20T01:43:12.566Z,82.10
2023-04-20T01:45:43.439Z,82.50
2023-04-20T01:48:14.116Z,82.00
2023-04-20T01:50:45.377Z,82.60
2023-04-20T01:53:16.240Z,82.40
2023-04-20T01:55:48.148Z,81.90
2023-04-20T01:58:18.891Z,81.50
2023-04-20T02:00:49.662Z,80.30
2023-04-20T02:03:20.835Z,81.00
2023-04-20T02:05:51.687Z,78.90
2023-04-20T02:08:28.536Z,79.20
2023-04-20T02:11:01.423Z,79.20
2023-04-20T02:13:32.833Z,78.70
2023-04-20T02:16:03.639Z,77.30
2023-04-20T02:18:35.160Z,77.50
2023-04-20T02:21:05.910Z,77.20
2023-04-20T02:23:36.558Z,76.80
2023-04-20T02:26:07.367Z,75.90
2023-04-20T02:28:38.149Z,74.30
2023-04-20T02:31:10.528Z,75.80
2023-04-20T02:33:41.191Z,76.10
2023-04-20T02:36:14.150Z,76.10
2023-04-20T02:38:44.844Z,76.10
2023-04-20T02:41:15.781Z,74.40
2023-04-20T02:43:46.451Z,75.40
2023-04-20T02:46:18.243Z,76.10
2023-04-20T02:48:48.931Z,75.90
2023-04-20T02:51:20.125Z,75.80
2023-04-20T02:53:50.789Z,75.20
2023-04-20T02:56:22.734Z,75.70
2023-04-20T02:58:54.634Z,75.90
2023-04-20T03:01:25.437Z,75.50
2023-04-20T03:03:56.444Z,76.00
2023-04-20T03:06:28.977Z,76.40
2023-04-20T03:08:59.642Z,76.70
2023-04-20T03:11:31.729Z,76.70
2023-04-20T03:14:02.979Z,76.00
2023-04-20T03:16:34.807Z,76.00
2023-04-20T03:19:06.706Z,76.10
2023-04-20T03:21:37.897Z,75.00
2023-04-20T03:24:09.408Z,75.30
2023-04-20T03:26:40.359Z,75.60
2023-04-20T03:29:11.079Z,75.40
2023-04-20T03:31:41.765Z,74.70
2023-04-20T03:34:12.508Z,73.10
2023-04-20T03:36:43.190Z,72.70
2023-04-20T03:39:14.058Z,73.60
2023-04-20T03:41:45.114Z,75.00
2023-04-20T03:44:17.296Z,75.40
2023-04-20T03:46:48.057Z,73.40
2023-04-20T03:49:19.105Z,74.00
2023-04-20T03:51:54.672Z,73.10
2023-04-20T03:54:25.653Z,72.90
2023-04-20T03:56:56.937Z,73.30
2023-04-20T03:59:28.956Z,73.00
2023-04-20T04:02:01.471Z,72.90
2023-04-20T04:04:32.836Z,72.60
2023-04-20T04:07:05.709Z,72.80
2023-04-20T04:09:38.411Z,71.70
2023-04-20T04:12:09.385Z,72.10
2023-04-20T04:14:41.582Z,70.70
2023-04-20T04:17:12.769Z,71.80
2023-04-20T04:19:44.740Z,72.80
2023-04-20T04:22:15.621Z,72.80
2023-04-20T04:24:48.061Z,72.30
2023-04-20T04:27:18.903Z,71.40
2023-04-20T04:29:52.050Z,71.50
2023-04-20T04:32:22.877Z,71.70
2023-04-20T04:34:55.169Z,72.10
2023-04-20T04:37:25.865Z,72.50
2023-04-20T04:39:56.318Z,72.20
2023-04-20T04:42:27.151Z,70.90
2023-04-20T04:44:57.996Z,71.10
2023-04-20T04:47:31.302Z,71.30
2023-04-20T04:50:04.014Z,70.90
2023-04-20T04:52:35.478Z,72.50
2023-04-20T04:55:11.373Z,72.10
2023-04-20T04:57:42.188Z,71.70
2023-04-20T05:00:14.716Z,70.70
2023-04-20T05:02:47.044Z,71.60
2023-04-20T05:05:18.749Z,72.00
2023-04-20T05:07:49.424Z,72.10
2023-04-20T05:10:20.348Z,71.90
2023-04-20T05:12:51.427Z,71.90
2023-04-20T05:15:22.663Z,72.40
2023-04-20T05:17:54.990Z,72.40
2023-04-20T05:20:26.721Z,72.70
2023-04-20T05:23:00.018Z,72.90
2023-04-20T05:25:30.766Z,72.50
2023-04-20T05:28:03.275Z,72.30
2023-04-20T05:30:33.496Z,72.40
2023-04-20T05:33:04.220Z,72.00
2023-04-20T05:35:36.715Z,71.40
2023-04-20T05:38:08.516Z,71.70
2023-04-20T05:40:39.644Z,72.00
2023-04-20T05:43:12.048Z,71.40
2023-04-20T05:45:47.198Z,71.10
2023-04-20T05:48:19.927Z,71.10
2023-04-20T05:50:51.558Z,71.50
2023-04-20T05:53:22.513Z,70.80
2023-04-20T05:55:53.202Z,71.30
2023-04-20T05:58:24.075Z,71.10
2023-04-20T06:00:56.737Z,72.10
2023-04-20T06:03:28.657Z,72.90
2023-04-20T06:05:59.706Z,71.40
2023-04-20T06:08:31.438Z,71.40
2023-04-20T06:11:02.044Z,70.80
2023-04-20T06:13:33.102Z,72.30
2023-04-20T06:16:03.775Z,73.90
2023-04-20T06:18:34.697Z,74.50
2023-04-20T06:21:06.893Z,71.70
2023-04-20T06:23:40.983Z,73.20
2023-04-20T06:26:13.530Z,74.50
2023-04-20T06:28:46.322Z,74.60
2023-04-20T06:31:17.080Z,74.80
2023-04-20T06:33:48.047Z,75.20
2023-04-20T06:36:27.925Z,75.70
2023-04-20T06:39:01.695Z,76.50
2023-04-20T06:41:32.515Z,76.40
2023-04-20T06:44:13.786Z,76.20
2023-04-20T06:46:44.528Z,76.10
2023-04-20T06:49:16.692Z,76.00
2023-04-20T06:51:47.781Z,76.10
2023-04-20T06:54:18.359Z,76.50
2023-04-20T06:56:48.663Z,76.60
2023-04-20T06:59:21.553Z,77.00
2023-04-20T07:01:52.291Z,77.30
2023-04-20T07:04:23.177Z,77.40
2023-04-20T07:06:56.360Z,77.50
2023-04-20T07:09:27.148Z,78.40
2023-04-20T07:11:58.475Z,79.10
2023-04-20T07:14:29.336Z,79.90
2023-04-20T07:17:00.074Z,80.50
2023-04-20T07:19:31.254Z,80.90
2023-04-20T07:22:04.757Z,80.70
2023-04-20T07:24:35.426Z,80.80
2023-04-20T07:27:07.144Z,80.80
2023-04-20T07:29:38.074Z,81.50
2023-04-20T07:32:09.349Z,81.80
2023-04-20T07:34:40.110Z,83.00
2023-04-20T07:37:12.615Z,83.20
2023-04-20T07:39:44.712Z,83.40
2023-04-20T07:42:19.401Z,84.10
2023-04-20T07:44:51.281Z,83.80
2023-04-20T07:47:22.071Z,83.70
2023-04-20T07:49:53.021Z,84.60
2023-04-20T07:52:24.778Z,85.20
2023-04-20T07:54:56.088Z,85.70
2023-04-20T07:57:26.978Z,86.40
2023-04-20T07:59:57.996Z,86.90
2023-04-20T08:02:29.430Z,87.10
2023-04-20T08:05:04.763Z,86.50
2023-04-20T08:07:36.001Z,86.30
2023-04-20T08:10:10.520Z,86.30
2023-04-20T08:12:43.690Z,86.40
2023-04-20T08:15:15.042Z,87.20
2023-04-20T08:17:47.831Z,87.20
2023-04-20T08:20:18.883Z,87.30
2023-04-20T08:22:49.860Z,86.80
2023-04-20T08:25:20.630Z,85.90
2023-04-20T08:27:51.456Z,86.00
2023-04-20T08:30:23.119Z,86.00
2023-04-20T08:32:53.988Z,86.40
2023-04-20T08:35:25.474Z,85.90
2023-04-20T08:38:01.006Z,85.70
2023-04-20T08:40:36.781Z,85.60
2023-04-20T08:43:08.450Z,85.90
2023-04-20T08:45:41.251Z,86.60
2023-04-20T08:48:13.073Z,85.10
2023-04-20T08:50:46.287Z,85.50
2023-04-20T08:53:20.480Z,84.90
2023-04-20T08:55:53.864Z,85.10
2023-04-20T08:58:24.926Z,85.70
2023-04-20T09:00:55.583Z,85.10
2023-04-20T09:03:43.694Z,85.10
2023-04-20T09:06:23.309Z,84.60
2023-04-20T09:08:54.595Z,84.40
2023-04-20T09:11:32.346Z,85.20
2023-04-20T09:14:16.995Z,85.70
2023-04-20T09:17:07.128Z,85.30
2023-04-20T09:19:37.843Z,85.30
2023-04-20T09:22:13.113Z,85.40
2023-04-20T09:24:45.546Z,85.20
2023-04-20T09:27:25.424Z,87.40
2023-04-20T09:30:11.214Z,86.90
2023-04-20T09:32:41.988Z,86.80
2023-04-20T09:35:14.072Z,86.20
2023-04-20T09:37:51.888Z,85.90
2023-04-20T09:40:24.457Z,86.00
2023-04-20T09:42:57.961Z,85.10
2023-04-20T09:45:29.818Z,86.20
2023-04-20T09:48:01.814Z,86.20
2023-04-20T09:50:45.654Z,86.40
2023-04-20T09:53:23.824Z,84.50
2023-04-20T09:55:54.666Z,85.10
2023-04-20T09:58:25.861Z,85.00
2023-04-20T10:00:56.556Z,83.00
2023-04-20T10:03:28.274Z,84.90
2023-04-20T10:06:03.152Z,85.00
2023-04-20T10:09:22.889Z,85.00
2023-04-20T10:11:55.673Z,85.60
2023-04-20T10:14:29.063Z,84.50
2023-04-20T10:17:11.756Z,83.30
2023-04-20T10:19:45.306Z,84.20
2023-04-20T10:22:31.077Z,83.90
2023-04-20T10:25:03.011Z,85.60
2023-04-20T10:27:34.636Z,84.80
2023-04-20T10:30:15.271Z,85.10
2023-04-20T10:32:47.336Z,84.50
2023-04-20T10:35:19.808Z,83.10
2023-04-20T10:37:53.959Z,83.40
2023-04-20T10:40:31.484Z,83.80
2023-04-20T10:43:01.785Z,84.30
2023-04-20T10:45:42.162Z,84.30
2023-04-20T10:48:13.108Z,84.80
2023-04-20T10:50:43.618Z,84.40
2023-04-20T10:53:25.222Z,83.60
2023-04-20T10:56:03.120Z,84.80
2023-04-20T10:58:33.452Z,85.00
2023-04-20T11:01:08.350Z,85.30
2023-04-20T11:03:39.841Z,84.60
2023-04-20T11:06:12.211Z,84.70
2023-04-20T11:08:46.663Z,85.20
2023-04-20T11:11:32.453Z,85.20
2023-04-20T11:14:15.425Z,85.30
2023-04-20T11:16:59.772Z,85.40
2023-04-20T11:19:34.315Z,84.90
2023-04-20T11:22:06.857Z,84.40
2023-04-20T11:24:40.711Z,84.00
2023-04-20T11:27:21.642Z,84.50
2023-04-20T11:30:00.681Z,84.70
2023-04-20T11:32:31.696Z,84.90
2023-04-20T11:35:06.919Z,85.40
2023-04-20T11:37:57.448Z,85.60
2023-04-20T11:40:29.445Z,85.90
2023-04-20T11:43:02.077Z,85.30
2023-04-20T11:45:40.281Z,85.70
2023-04-20T11:48:12.472Z,85.80
2023-04-20T11:50:43.622Z,85.10
2023-04-20T11:53:17.958Z,84.70
2023-04-20T11:55:49.256Z,84.90
2023-04-20T11:58:19.913Z,85.50
2023-04-20T12:00:50.633Z,85.30
2023-04-20T12:03:21.485Z,85.50
2023-04-20T12:05:52.550Z,85.70
2023-04-20T12:08:30.312Z,85.40
2023-04-20T12:11:02.074Z,85.70
2023-04-20T12:13:32.906Z,86.70
2023-04-20T12:16:04.796Z,86.10
2023-04-20T12:18:35.514Z,86.00
2023-04-20T12:21:06.154Z,86.20
2023-04-20T12:23:40.355Z,86.10
2023-04-20T12:26:13.277Z,85.70
2023-04-20T12:28:44.918Z,86.40
2023-04-20T12:31:16.009Z,85.80
2023-04-20T12:33:46.732Z,85.80
2023-04-20T12:36:18.075Z,86.00
2023-04-20T12:38:49.071Z,85.60
2023-04-20T12:41:20.981Z,86.20
2023-04-20T12:43:53.828Z,85.60
2023-04-20T12:46:26.121Z,85.70
2023-04-20T12:48:57.775Z,85.50
2023-04-20T12:51:30.313Z,85.60
2023-04-20T12:54:01.492Z,85.10
2023-04-20T12:56:34.312Z,83.70
2023-04-20T12:59:05.171Z,84.50
2023-04-20T13:01:36.053Z,83.70
2023-04-20T13:04:07.247Z,83.80
2023-04-20T13:06:38.320Z,84.00
2023-04-20T13:09:10.352Z,83.50
2023-04-20T13:11:42.339Z,84.60
2023-04-20T13:14:13.441Z,83.90
2023-04-20T13:16:44.668Z,84.10
2023-04-20T13:19:15.177Z,84.80
2023-04-20T13:21:45.408Z,85.00
2023-04-20T13:24:16.345Z,85.20
2023-04-20T13:26:46.829Z,85.70
2023-04-20T13:29:17.647Z,85.50
2023-04-20T13:31:49.270Z,85.30
2023-04-20T13:34:20.401Z,85.20
2023-04-20T13:36:51.207Z,84.60
2023-04-20T13:39:22.568Z,85.30
2023-04-20T13:41:52.905Z,85.30
2023-04-20T13:44:23.303Z,85.50
2023-04-20T13:46:54.934Z,85.40
2023-04-20T13:49:25.612Z,85.30
2023-04-20T13:51:55.994Z,85.00
2023-04-20T13:54:26.376Z,85.00
2023-04-20T13:56:56.726Z,85.80
2023-04-20T13:59:27.070Z,85.80
2023-04-20T14:01:57.348Z,85.80
2023-04-20T14:04:27.976Z,86.40
2023-04-20T14:06:58.749Z,86.40
2023-04-20T14:09:30.294Z,86.10
2023-04-20T14:12:01.400Z,86.20
2023-04-20T14:14:32.283Z,86.20
2023-04-20T14:17:04.121Z,87.30
2023-04-20T14:19:36.117Z,86.50
2023-04-20T14:22:06.998Z,86.60
2023-04-20T14:24:38.009Z,87.30
2023-04-20T14:27:09.916Z,87.60
2023-04-20T14:29:40.370Z,87.00
2023-04-20T14:32:11.954Z,87.20
2023-04-20T14:34:42.876Z,87.00
2023-04-20T14:37:13.148Z,87.60
2023-04-20T14:39:43.722Z,87.10
2023-04-20T14:42:14.906Z,87.10
2023-04-20T14:44:46.018Z,86.90
2023-04-20T14:47:16.341Z,87.00
2023-04-20T14:49:47.621Z,87.10
2023-04-20T14:52:18.229Z,86.90
2023-04-20T14:54:48.869Z,87.20
2023-04-20T14:57:20.439Z,87.30
2023-04-20T14:59:50.773Z,87.70
2023-04-20T15:02:21.121Z,87.90
2023-04-20T15:04:52.877Z,88.10
2023-04-20T15:07:23.636Z,87.00
2023-04-20T15:09:54.063Z,87.50
2023-04-20T15:12:24.810Z,88.10
2023-04-20T15:14:55.415Z,88.70
2023-04-20T15:17:26.059Z,88.50
2023-04-20T15:19:56.418Z,88.60
2023-04-20T15:22:26.667Z,88.50
2023-04-20T15:24:56.959Z,88.20
2023-04-20T15:27:27.287Z,87.90
2023-04-20T15:30:00.041Z,87.80
2023-04-20T15:32:32.127Z,87.70
2023-04-20T15:35:02.858Z,88.30
2023-04-20T15:37:33.280Z,89.30
2023-04-20T15:40:03.604Z,89.90
2023-04-20T15:42:35.133Z,90.00
2023-04-20T15:45:06.575Z,90.00
2023-04-20T15:47:36.902Z,90.60
2023-04-20T15:50:07.891Z,90.70
2023-04-20T15:52:39.160Z,90.70
2023-04-20T15:55:14.023Z,90.50
2023-04-20T15:57:44.993Z,90.30
2023-04-20T16:00:16.078Z,90.00
2023-04-20T16:02:46.573Z,90.00
2023-04-20T16:05:16.911Z,89.80
2023-04-20T16:07:47.618Z,89.90
2023-04-20T16:10:18.161Z,90.50
2023-04-20T16:12:48.684Z,90.70
2023-04-20T16:15:19.417Z,90.40
2023-04-20T16:17:49.991Z,90.20
2023-04-20T16:20:20.489Z,89.50
2023-04-20T16:22:50.824Z,89.90
2023-04-20T16:25:25.798Z,90.10
2023-04-20T16:27:56.254Z,90.00
2023-04-20T16:30:26.529Z,89.60
2023-04-20T16:32:57.593Z,88.70
2023-04-20T16:35:29.139Z,88.20
2023-04-20T16:37:59.787Z,88.20
2023-04-20T16:40:30.292Z,88.50
2023-04-20T16:43:01.346Z,88.70
2023-04-20T16:45:32.103Z,88.30
2023-04-20T16:48:02.793Z,88.60
2023-04-20T16:50:34.306Z,88.70
2023-04-20T16:53:05.460Z,88.00
2023-04-20T16:55:35.788Z,88.50
2023-04-20T16:58:08.708Z,90.20
2023-04-20T17:00:39.655Z,90.00
2023-04-20T17:03:12.170Z,89.50
2023-04-20T17:05:43.519Z,89.20
2023-04-20T17:08:14.261Z,89.30
2023-04-20T17:10:44.537Z,88.10
2023-04-20T17:13:14.991Z,88.40
2023-04-20T17:15:47.125Z,89.00
2023-04-20T17:18:17.962Z,89.30
2023-04-20T17:20:49.607Z,88.80
2023-04-20T17:23:20.690Z,89.30
2023-04-20T17:25:51.526Z,89.80
2023-04-20T17:28:21.881Z,90.00
2023-04-20T17:30:52.611Z,89.50
2023-04-20T17:33:23.827Z,88.40
2023-04-20T17:35:54.591Z,88.20
2023-04-20T17:38:30.836Z,88.60
2023-04-20T17:41:02.298Z,89.10
2023-04-20T17:43:33.059Z,89.10
2023-04-20T17:46:03.411Z,89.50
2023-04-20T17:48:34.357Z,89.60
2023-04-20T17:51:05.970Z,90.00
2023-04-20T17:53:36.433Z,89.60
2023-04-20T17:56:07.986Z,90.00
2023-04-20T17:58:38.592Z,90.10
2023-04-20T18:01:09.305Z,90.00
2023-04-20T18:03:40.498Z,89.40
2023-04-20T18:06:12.013Z,89.60
2023-04-20T18:08:42.730Z,90.00
2023-04-20T18:11:13.181Z,90.10
2023-04-20T18:13:43.502Z,90.00
2023-04-20T18:16:13.806Z,90.00
2023-04-20T18:18:44.146Z,90.30
2023-04-20T18:21:15.891Z,90.40
2023-04-20T18:23:46.253Z,90.30
2023-04-20T18:26:19.650Z,90.40
2023-04-20T18:28:50.682Z,90.40
2023-04-20T18:31:22.761Z,90.30
2023-04-20T18:33:53.509Z,90.20
2023-04-20T18:36:24.170Z,90.20
2023-04-20T18:38:55.711Z,90.60
2023-04-20T18:41:27.373Z,90.40
2023-04-20T18:43:59.499Z,90.40
2023-04-20T18:46:29.806Z,90.50
2023-04-20T18:49:02.698Z,90.20
2023-04-20T18:51:34.174Z,90.40
2023-04-20T18:54:05.006Z,90.50
2023-04-20T18:56:36.978Z,90.80
2023-04-20T18:59:09.751Z,90.50
2023-04-20T19:01:42.573Z,89.70
2023-04-20T19:04:13.700Z,90.00
2023-04-20T19:06:44.323Z,90.00
2023-04-20T19:09:14.765Z,90.20
2023-04-20T19:11:48.757Z,90.20
2023-04-20T19:14:19.279Z,90.10
2023-04-20T19:16:49.754Z,90.20
2023-04-20T19:19:20.033Z,90.50
2023-04-20T19:21:50.362Z,90.40
2023-04-20T19:24:21.157Z,90.30
2023-04-20T19:26:51.966Z,90.20
2023-04-20T19:29:22.492Z,90.40
2023-04-20T19:31:52.906Z,90.20
2023-04-20T19:34:24.231Z,90.20
2023-04-20T19:36:55.505Z,90.30
2023-04-20T19:39:25.985Z,90.30
2023-04-20T19:41:57.209Z,90.20
2023-04-20T19:44:28.051Z,90.20
2023-04-20T19:46:58.753Z,90.30
2023-04-20T19:49:29.067Z,90.10
2023-04-20T19:51:59.394Z,90.30
2023-04-20T19:54:29.713Z,90.10
2023-04-20T19:57:00.673Z,90.10
2023-04-20T19:59:32.046Z,90.20
2023-04-20T20:02:02.989Z,90.20
2023-04-20T20:04:34.828Z,90.30
2023-04-20T20:07:05.770Z,90.30
2023-04-20T20:09:36.113Z,90.60
2023-04-20T20:12:08.624Z,90.50
2023-04-20T20:14:39.330Z,90.70
2023-04-20T20:17:10.166Z,90.70
2023-04-20T20:19:43.416Z,90.40
2023-04-20T20:22:13.888Z,90.40
2023-04-20T20:24:46.331Z,90.40
2023-04-20T20:27:16.634Z,90.80
2023-04-20T20:29:46.978Z,91.10
2023-04-20T20:32:18.082Z,90.80
2023-04-20T20:34:48.897Z,90.70
2023-04-20T20:37:19.425Z,91.10
2023-04-20T20:39:49.766Z,90.80
2023-04-20T20:42:20.036Z,90.80
2023-04-20T20:44:50.713Z,90.70
2023-04-20T20:47:21.345Z,90.80
2023-04-20T20:49:51.627Z,91.00
2023-04-20T20:52:22.797Z,91.10
2023-04-20T20:54:53.963Z,91.20
2023-04-20T20:57:26.662Z,91.30
2023-04-20T20:59:57.541Z,91.10
2023-04-20T21:02:29.017Z,91.20
2023-04-20T21:04:59.700Z,90.90
2023-04-20T21:07:31.058Z,91.20
2023-04-20T21:10:02.243Z,91.00
2023-04-20T21:12:38.146Z,91.00
2023-04-20T21:15:20.773Z,91.00
2023-04-20T21:17:52.408Z,90.90
2023-04-20T21:20:28.001Z,90.80
2023-04-20T21:23:00.402Z,90.80
2023-04-20T21:25:34.834Z,90.60
2023-04-20T21:28:06.381Z,90.50
2023-04-20T21:30:41.413Z,90.50
2023-04-20T21:33:12.497Z,89.70
2023-04-20T21:35:46.695Z,90.10
2023-04-20T21:38:31.482Z,90.00
2023-04-20T21:41:07.196Z,89.20
2023-04-20T21:43:37.942Z,89.80
2023-04-20T21:46:09.173Z,88.80
2023-04-20T21:48:42.203Z,89.00
2023-04-20T21:51:16.964Z,89.30
2023-04-20T21:53:54.704Z,89.50
2023-04-20T21:56:25.402Z,90.00
2023-04-20T21:58:56.326Z,90.00
2023-04-20T22:01:28.254Z,90.20
2023-04-20T22:03:59.400Z,90.10
2023-04-20T22:06:30.810Z,90.00
2023-04-20T22:09:01.808Z,89.90
2023-04-20T22:11:33.420Z,89.10
2023-04-20T22:14:06.242Z,89.20
2023-04-20T22:16:38.233Z,90.00
2023-04-20T22:19:11.289Z,90.10
2023-04-20T22:21:45.363Z,90.10
2023-04-20T22:24:16.109Z,90.10
2023-04-20T22:26:47.028Z,90.00
2023-04-20T22:29:21.072Z,90.20
2023-04-20T22:31:52.894Z,89.80
2023-04-20T22:34:24.810Z,90.20
2023-04-20T22:36:55.600Z,90.20
2023-04-20T22:39:27.928Z,89.80
2023-04-20T22:41:59.107Z,89.50
2023-04-20T22:44:29.810Z,89.30
2023-04-20T22:47:01.069Z,89.30
2023-04-20T22:49:31.969Z,88.80
2023-04-20T22:52:04.301Z,88.90
2023-04-20T22:54:35.636Z,89.10
2023-04-20T22:57:07.498Z,89.10
2023-04-20T22:59:38.320Z,89.70
2023-04-20T23:02:10.085Z,89.90
2023-04-20T23:04:43.062Z,90.00
2023-04-20T23:07:14.116Z,90.10
2023-04-20T23:09:44.954Z,90.20
2023-04-20T23:12:15.686Z,90.20
2023-04-20T23:14:47.662Z,90.50
2023-04-20T23:17:18.329Z,90.20
2023-04-20T23:19:49.504Z,90.30
2023-04-20T23:22:20.335Z,88.80
2023-04-20T23:24:53.130Z,90.00
2023-04-20T23:27:25.390Z,88.00
2023-04-20T23:29:56.101Z,87.80
2023-04-20T23:32:28.001Z,87.50
2023-04-20T23:34:59.016Z,86.90
2023-04-20T23:37:29.720Z,85.80
2023-04-20T23:40:00.486Z,85.00
2023-04-20T23:42:32.076Z,83.60
2023-04-20T23:45:02.924Z,82.00
2023-04-20T23:47:33.865Z,81.20
2023-04-20T23:50:05.230Z,81.50
2023-04-20T23:52:36.095Z,80.00
2023-04-20T23:55:08.375Z,80.70
2023-04-20T23:57:39.121Z,81.70
